createdAt,value
2023-04-23T00:00:14.957Z,17.23
2023-04-23T00:02:47.498Z,17.73
2023-04-23T00:05:16.944Z,18.50
2023-04-23T00:07:46.140Z,17.53
2023-04-23T00:10:15.301Z,18.17
2023-04-23T00:12:46.154Z,16.73
2023-04-23T00:15:16.110Z,18.00
2023-04-23T00:17:44.841Z,17.60
2023-04-23T00:20:13.890Z,16.27
2023-04-23T00:22:42.660Z,16.90
2023-04-23T00:25:12.058Z,18.13
2023-04-23T00:27:41.273Z,17.27
2023-04-23T00:30:12.791Z,17.93
2023-04-23T00:32:41.907Z,17.20
2023-04-23T00:35:11.027Z,16.83
2023-04-23T00:37:40.209Z,17.50
2023-04-23T00:40:11.129Z,16.23
2023-04-23T00:42:40.732Z,16.63
2023-04-23T00:45:12.426Z,15.17
2023-04-23T00:47:42.372Z,16.27
2023-04-23T00:50:11.619Z,16.13
2023-04-23T00:52:40.935Z,17.27
2023-04-23T00:55:10.522Z,17.00
2023-04-23T00:57:39.917Z,17.27
2023-04-23T01:00:14.165Z,16.80
2023-04-23T01:02:44.821Z,16.53
2023-04-23T01:05:15.742Z,17.30
2023-04-23T01:07:46.543Z,16.30
2023-04-23T01:10:15.374Z,17.37
2023-04-23T01:12:45.391Z,17.30
2023-04-23T01:15:15.544Z,17.67
2023-04-23T01:17:44.485Z,19.40
2023-04-23T01:20:13.814Z,18.00
2023-04-23T01:22:43.987Z,18.33
2023-04-23T01:25:13.214Z,19.60
2023-04-23T01:27:42.813Z,19.77
2023-04-23T01:30:12.639Z,19.23
2023-04-23T01:32:41.730Z,18.73
2023-04-23T01:35:13.339Z,17.87
2023-04-23T01:37:44.747Z,18.83
2023-04-23T01:40:13.989Z,19.93
2023-04-23T01:42:54.255Z,19.97
2023-04-23T01:45:23.336Z,20.73
2023-04-23T01:47:52.653Z,21.77
2023-04-23T01:50:24.592Z,22.90
2023-04-23T01:52:53.405Z,23.37
2023-04-23T01:55:22.263Z,25.67
2023-04-23T01:57:51.299Z,28.07
2023-04-23T02:00:21.722Z,27.40
2023-04-23T02:02:52.696Z,28.80
2023-04-23T02:05:22.937Z,30.73
2023-04-23T02:07:52.861Z,29.73
2023-04-23T02:10:21.895Z,31.33
2023-04-23T02:12:51.311Z,30.70
2023-04-23T02:15:21.612Z,31.17
2023-04-23T02:17:52.431Z,31.27
2023-04-23T02:20:22.678Z,32.97
2023-04-23T02:22:52.112Z,32.70
2023-04-23T02:25:22.129Z,32.03
2023-04-23T02:27:50.994Z,32.97
2023-04-23T02:30:21.624Z,33.23
2023-04-23T02:32:50.556Z,32.33
2023-04-23T02:35:19.467Z,34.03
2023-04-23T02:37:48.337Z,32.93
2023-04-23T02:40:17.093Z,33.73
2023-04-23T02:42:45.896Z,31.87
2023-04-23T02:45:14.736Z,32.77
2023-04-23T02:47:44.985Z,32.60
2023-04-23T02:50:13.825Z,32.87
2023-04-23T02:52:42.563Z,33.03
2023-04-23T02:55:12.179Z,33.13
2023-04-23T02:57:41.127Z,33.70
2023-04-23T03:00:12.504Z,33.50
2023-04-23T03:02:45.922Z,34.73
2023-04-23T03:05:15.039Z,34.27
2023-04-23T03:07:44.144Z,34.40
2023-04-23T03:10:13.080Z,32.57
2023-04-23T03:13:47.566Z,34.10
2023-04-23T03:16:16.902Z,33.10
2023-04-23T03:18:45.673Z,34.00
2023-04-23T03:21:14.538Z,33.03
2023-04-23T03:23:45.401Z,34.13
2023-04-23T03:26:14.224Z,32.77
2023-04-23T03:28:43.252Z,33.47
2023-04-23T03:31:13.687Z,32.83
2023-04-23T03:33:44.743Z,34.00
2023-04-23T03:36:13.541Z,33.60
2023-04-23T03:38:42.450Z,31.53
2023-04-23T03:41:11.665Z,31.67
2023-04-23T03:43:40.692Z,31.27
2023-04-23T03:46:37.013Z,32.70
2023-04-23T03:49:06.035Z,31.70
2023-04-23T03:51:34.841Z,31.73
2023-04-23T03:54:03.597Z,32.30
2023-04-23T03:56:42.090Z,31.43
2023-04-23T03:59:24.277Z,31.87
2023-04-23T04:01:56.859Z,30.60
2023-04-23T04:04:28.634Z,31.77
2023-04-23T04:06:58.235Z,32.10
2023-04-23T04:09:29.457Z,31.27
2023-04-23T04:12:03.094Z,30.90
2023-04-23T04:14:33.123Z,29.97
2023-04-23T04:17:03.242Z,31.33
2023-04-23T04:19:33.326Z,30.63
2023-04-23T04:22:03.886Z,31.13
2023-04-23T04:24:32.945Z,32.43
2023-04-23T04:27:01.906Z,31.93
2023-04-23T04:29:31.331Z,30.97
2023-04-23T04:32:00.560Z,30.10
2023-04-23T04:34:30.771Z,30.13
2023-04-23T04:36:59.489Z,31.73
2023-04-23T04:39:28.218Z,30.47
2023-04-23T04:41:57.668Z,31.00
2023-04-23T04:44:26.598Z,32.43
2023-04-23T04:46:55.363Z,30.43
2023-04-23T04:49:24.200Z,30.50
2023-04-23T04:51:55.211Z,32.27
2023-04-23T04:54:23.990Z,31.23
2023-04-23T04:56:52.691Z,30.83
2023-04-23T04:59:21.440Z,31.77
2023-04-23T05:01:50.218Z,30.90
2023-04-23T05:04:19.049Z,30.93
2023-04-23T05:06:47.842Z,32.33
2023-04-23T05:09:17.964Z,30.77
2023-04-23T05:11:46.729Z,32.30
2023-04-23T05:14:15.502Z,31.63
2023-04-23T05:16:44.262Z,31.37
2023-04-23T05:19:13.017Z,31.93
2023-04-23T05:21:42.699Z,32.57
2023-04-23T05:24:11.498Z,32.30
2023-04-23T05:26:41.676Z,31.67
2023-04-23T05:29:10.458Z,34.00
2023-04-23T05:31:39.528Z,32.97
2023-04-23T05:34:08.290Z,34.33
2023-04-23T05:36:37.008Z,33.67
2023-04-23T05:39:06.186Z,32.43
2023-04-23T05:41:35.345Z,31.40
2023-04-23T05:44:06.742Z,33.07
2023-04-23T05:46:35.646Z,32.50
2023-04-23T05:49:04.428Z,31.67
2023-04-23T05:51:33.349Z,32.27
2023-04-23T05:54:02.110Z,31.53
2023-04-23T05:56:30.830Z,33.47
2023-04-23T05:58:59.527Z,34.40
2023-04-23T06:01:30.104Z,32.40
2023-04-23T06:03:59.454Z,33.27
2023-04-23T06:06:28.357Z,34.10
2023-04-23T06:08:57.079Z,33.60
2023-04-23T06:11:25.860Z,34.67
2023-04-23T06:13:56.820Z,33.97
2023-04-23T06:16:25.772Z,34.33
2023-04-23T06:18:56.519Z,32.70
2023-04-23T06:21:25.456Z,35.97
2023-04-23T06:23:54.764Z,36.10
2023-04-23T06:26:23.633Z,32.17
2023-04-23T06:28:54.344Z,35.43
2023-04-23T06:31:33.366Z,33.97
2023-04-23T06:34:03.864Z,34.03
2023-04-23T06:36:32.644Z,32.83
2023-04-23T06:39:01.443Z,34.37
2023-04-23T06:41:30.293Z,32.50
2023-04-23T06:44:09.588Z,30.67
2023-04-23T06:46:45.288Z,31.77
2023-04-23T06:49:15.848Z,31.47
2023-04-23T06:51:46.013Z,31.10
2023-04-23T06:54:14.792Z,30.53
2023-04-23T06:56:43.563Z,28.63
2023-04-23T06:59:12.299Z,31.65
2023-04-23T07:01:48.472Z,29.80
2023-04-23T07:04:18.651Z,29.58
2023-04-23T07:06:47.480Z,30.38
2023-04-23T07:09:16.321Z,28.10
2023-04-23T07:11:45.224Z,28.90
2023-04-23T07:14:13.967Z,29.23
2023-04-23T07:16:42.736Z,30.27
2023-04-23T07:19:11.457Z,29.15
2023-04-23T07:21:42.699Z,29.42
2023-04-23T07:24:11.403Z,29.27
2023-04-23T07:26:40.198Z,27.95
2023-04-23T07:29:10.733Z,29.10
2023-04-23T07:31:41.906Z,26.77
2023-04-23T07:34:11.666Z,25.10
2023-04-23T07:36:42.008Z,24.77
2023-04-23T07:39:11.239Z,23.17
2023-04-23T07:41:41.315Z,23.65
2023-04-23T07:44:10.357Z,25.48
2023-04-23T07:46:39.145Z,25.67
2023-04-23T07:49:08.298Z,25.58
2023-04-23T07:51:37.081Z,26.20
2023-04-23T07:54:07.425Z,24.80
2023-04-23T07:56:36.521Z,25.30
2023-04-23T07:59:05.981Z,28.48
2023-04-23T08:01:34.893Z,26.10
2023-04-23T08:04:03.961Z,24.90
2023-04-23T08:06:35.298Z,23.67
2023-04-23T08:09:06.648Z,26.13
2023-04-23T08:11:36.867Z,24.75
2023-04-23T08:14:06.145Z,25.77
2023-04-23T08:16:38.088Z,25.17
2023-04-23T08:19:07.789Z,25.48
2023-04-23T08:21:37.845Z,25.75
2023-04-23T08:24:07.897Z,24.20
2023-04-23T08:26:38.115Z,23.45
2023-04-23T08:29:08.245Z,22.17
2023-04-23T08:31:38.665Z,49.33
2023-04-23T08:34:07.446Z,36.65
2023-04-23T08:36:36.161Z,33.40
2023-04-23T08:39:06.105Z,68.13
2023-04-23T08:41:41.099Z,62.63
2023-04-23T08:44:15.116Z,28.33
2023-04-23T08:46:45.696Z,21.38
2023-04-23T08:49:16.834Z,28.02
2023-04-23T08:51:51.138Z,21.33
2023-04-23T08:54:26.961Z,21.10
2023-04-23T08:56:59.238Z,22.75
2023-04-23T08:59:29.906Z,22.50
2023-04-23T09:02:01.245Z,22.95
2023-04-23T09:04:31.824Z,21.70
2023-04-23T09:07:00.660Z,20.30
2023-04-23T09:09:31.446Z,23.23
2023-04-23T09:12:01.637Z,28.58
2023-04-23T09:14:30.561Z,27.08
2023-04-23T09:16:59.434Z,19.83
2023-04-23T09:19:29.309Z,19.98
2023-04-23T09:21:59.448Z,21.92
2023-04-23T09:24:28.295Z,21.40
2023-04-23T09:26:58.948Z,19.92
2023-04-23T09:29:29.171Z,21.17
2023-04-23T09:32:04.495Z,20.27
2023-04-23T09:34:37.021Z,20.27
2023-04-23T09:37:08.107Z,20.55
2023-04-23T09:39:37.097Z,19.63
2023-04-23T09:42:09.955Z,18.33
2023-04-23T09:44:40.242Z,19.48
2023-04-23T09:47:12.319Z,18.20
2023-04-23T09:49:48.209Z,17.63
2023-04-23T09:52:17.040Z,17.30
2023-04-23T09:54:46.704Z,17.70
2023-04-23T09:57:15.911Z,19.33
2023-04-23T09:59:50.123Z,18.63
2023-04-23T10:02:22.282Z,18.63
2023-04-23T10:05:00.608Z,18.40
2023-04-23T10:07:32.733Z,11.52
2023-04-23T10:10:01.522Z,13.07
2023-04-23T10:12:46.179Z,12.45
2023-04-23T10:15:20.584Z,13.38
2023-04-23T10:17:51.461Z,12.38
2023-04-23T10:20:23.197Z,12.93
2023-04-23T10:22:54.087Z,12.88
2023-04-23T10:25:24.324Z,11.65
2023-04-23T10:27:56.555Z,10.30
2023-04-23T10:30:28.053Z,10.20
2023-04-23T10:32:58.417Z,9.98
2023-04-23T10:35:27.372Z,11.30
2023-04-23T10:37:56.310Z,10.73
2023-04-23T10:40:31.306Z,10.27
2023-04-23T10:43:01.089Z,11.73
2023-04-23T10:45:33.088Z,10.57
2023-04-23T10:48:04.662Z,11.95
2023-04-23T10:50:40.704Z,11.40
2023-04-23T10:53:22.525Z,12.20
2023-04-23T10:55:51.804Z,11.18
2023-04-23T10:58:22.170Z,11.25
2023-04-23T11:00:53.808Z,10.23
2023-04-23T11:03:33.901Z,11.70
2023-04-23T11:06:07.031Z,12.57
2023-04-23T11:08:37.468Z,11.18
2023-04-23T11:11:09.772Z,12.35
2023-04-23T11:13:52.619Z,10.77
2023-04-23T11:16:27.245Z,10.02
2023-04-23T11:19:05.279Z,10.75
2023-04-23T11:21:59.789Z,9.98
2023-04-23T11:24:33.690Z,10.00
2023-04-23T11:27:04.905Z,8.73
2023-04-23T11:29:33.681Z,8.07
2023-04-23T11:32:05.584Z,7.57
2023-04-23T11:34:34.460Z,6.28
2023-04-23T11:37:05.171Z,5.50
2023-04-23T11:39:34.305Z,5.65
2023-04-23T11:42:03.616Z,5.50
2023-04-23T11:44:32.656Z,5.20
2023-04-23T11:47:03.636Z,5.30
2023-04-23T11:49:33.501Z,4.68
2023-04-23T11:52:03.152Z,5.68
2023-04-23T11:54:31.938Z,6.00
2023-04-23T11:57:01.569Z,5.53
2023-04-23T11:59:30.749Z,4.55
2023-04-23T12:02:00.265Z,4.82
2023-04-23T12:04:31.891Z,4.50
2023-04-23T12:07:03.107Z,4.25
2023-04-23T12:09:38.360Z,4.40
2023-04-23T12:12:07.531Z,4.25
2023-04-23T12:14:36.352Z,4.40
2023-04-23T12:17:12.560Z,3.80
2023-04-23T12:19:46.120Z,3.88
2023-04-23T12:22:14.907Z,3.80
2023-04-23T12:24:53.666Z,4.05
2023-04-23T12:27:23.399Z,4.13
2023-04-23T12:30:02.461Z,3.85
2023-04-23T12:32:35.472Z,3.58
2023-04-23T12:35:06.749Z,4.10
2023-04-23T12:37:38.562Z,3.70
2023-04-23T12:40:08.471Z,3.25
2023-04-23T12:42:37.776Z,3.20
2023-04-23T12:45:11.312Z,3.90
2023-04-23T12:47:40.446Z,3.13
2023-04-23T12:50:12.254Z,2.78
2023-04-23T12:52:41.151Z,3.15
2023-04-23T12:55:10.351Z,3.65
2023-04-23T12:57:39.150Z,3.30
2023-04-23T13:00:09.585Z,3.20
2023-04-23T13:02:38.457Z,2.70
2023-04-23T13:05:08.020Z,3.30
2023-04-23T13:07:38.312Z,3.25
2023-04-23T13:10:08.007Z,3.08
2023-04-23T13:12:36.757Z,2.85
2023-04-23T13:15:06.346Z,2.80
2023-04-23T13:17:35.198Z,2.90
2023-04-23T13:20:05.090Z,2.95
2023-04-23T13:22:35.501Z,3.10
2023-04-23T13:25:06.228Z,3.88
2023-04-23T13:27:35.001Z,3.10
2023-04-23T13:30:04.015Z,3.50
2023-04-23T13:32:33.175Z,3.38
2023-04-23T13:35:04.228Z,3.20
2023-04-23T13:37:33.798Z,3.03
2023-04-23T13:40:06.059Z,2.80
2023-04-23T13:42:35.694Z,2.78
2023-04-23T13:45:06.311Z,4.95
2023-04-23T13:47:35.160Z,3.03
2023-04-23T13:50:06.996Z,3.60
2023-04-23T13:52:37.439Z,2.80
2023-04-23T13:55:10.058Z,2.88
2023-04-23T13:57:39.489Z,2.42
2023-04-23T14:00:09.550Z,2.67
2023-04-23T14:02:38.436Z,2.60
2023-04-23T14:05:09.107Z,2.67
2023-04-23T14:07:37.854Z,2.53
2023-04-23T14:10:09.351Z,3.10
2023-04-23T14:12:39.094Z,2.90
2023-04-23T14:15:09.127Z,2.67
2023-04-23T14:17:39.566Z,4.38
2023-04-23T14:20:09.500Z,3.90
2023-04-23T14:22:38.368Z,3.20
2023-04-23T14:25:11.514Z,4.50
2023-04-23T14:27:43.111Z,3.30
2023-04-23T14:30:18.166Z,3.25
2023-04-23T14:32:49.310Z,2.90
2023-04-23T14:35:24.495Z,3.00
2023-04-23T14:37:55.510Z,3.20
2023-04-23T14:40:25.718Z,3.22
2023-04-23T14:42:56.946Z,3.38
2023-04-23T14:45:31.461Z,3.30
2023-04-23T14:48:00.331Z,3.17
2023-04-23T14:50:29.588Z,3.40
2023-04-23T14:52:59.095Z,3.13
2023-04-23T14:55:29.474Z,3.53
2023-04-23T14:57:58.211Z,3.15
2023-04-23T15:00:27.120Z,2.92
2023-04-23T15:02:56.172Z,3.38
2023-04-23T15:05:25.459Z,3.25
2023-04-23T15:07:54.248Z,3.05
2023-04-23T15:10:23.545Z,3.15
2023-04-23T15:13:03.554Z,3.10
2023-04-23T15:15:44.481Z,3.03
2023-04-23T15:18:14.940Z,2.95
2023-04-23T15:20:44.503Z,3.50
2023-04-23T15:23:13.257Z,3.85
2023-04-23T15:25:42.198Z,3.67
2023-04-23T15:28:12.533Z,4.35
2023-04-23T15:30:41.814Z,4.45
2023-04-23T15:33:10.622Z,4.20
2023-04-23T15:35:39.389Z,4.18
2023-04-23T15:38:08.264Z,4.05
2023-04-23T15:40:42.288Z,4.22
2023-04-23T15:43:17.443Z,4.40
2023-04-23T15:45:48.642Z,4.43
2023-04-23T15:48:17.995Z,4.32
2023-04-23T15:50:47.333Z,4.68
2023-04-23T15:53:16.154Z,4.47
2023-04-23T15:55:44.912Z,4.00
2023-04-23T15:58:15.073Z,4.50
2023-04-23T16:00:43.855Z,4.68
2023-04-23T16:03:15.224Z,4.70
2023-04-23T16:05:48.356Z,4.15
2023-04-23T16:08:17.580Z,4.72
2023-04-23T16:10:46.624Z,4.65
2023-04-23T16:13:19.247Z,5.32
2023-04-23T16:15:48.407Z,5.10
2023-04-23T16:18:17.354Z,4.90
2023-04-23T16:20:46.207Z,5.40
2023-04-23T16:23:14.962Z,5.43
2023-04-23T16:25:44.273Z,4.90
2023-04-23T16:28:14.018Z,5.68
2023-04-23T16:30:44.256Z,6.13
2023-04-23T16:33:13.064Z,7.03
2023-04-23T16:35:41.895Z,6.25
2023-04-23T16:38:11.469Z,5.97
2023-04-23T16:40:40.723Z,5.88
2023-04-23T16:43:10.354Z,5.53
2023-04-23T16:45:40.400Z,5.60
2023-04-23T16:48:13.985Z,7.10
2023-04-23T16:50:43.336Z,7.07
2023-04-23T16:53:12.109Z,5.38
2023-04-23T16:55:40.906Z,6.13
2023-04-23T16:58:10.329Z,6.50
2023-04-23T17:00:39.121Z,7.00
2023-04-23T17:03:08.106Z,6.15
2023-04-23T17:05:41.251Z,5.85
2023-04-23T17:08:10.104Z,6.40
2023-04-23T17:10:39.763Z,6.38
2023-04-23T17:13:08.654Z,6.05
2023-04-23T17:15:37.451Z,6.57
2023-04-23T17:18:06.497Z,6.38
2023-04-23T17:20:35.514Z,6.70
2023-04-23T17:23:05.772Z,6.10
2023-04-23T17:25:34.519Z,6.28
2023-04-23T17:28:03.304Z,6.65
2023-04-23T17:30:32.153Z,6.72
2023-04-23T17:33:01.069Z,7.22
2023-04-23T17:35:29.919Z,7.75
2023-04-23T17:37:58.647Z,7.13
2023-04-23T17:40:28.982Z,7.40
2023-04-23T17:42:57.759Z,8.35
2023-04-23T17:45:26.545Z,8.30
2023-04-23T17:47:55.353Z,10.35
2023-04-23T17:50:24.372Z,11.18
2023-04-23T17:52:53.291Z,11.10
2023-04-23T17:55:22.206Z,11.77
2023-04-23T17:57:52.392Z,10.15
2023-04-23T18:00:21.483Z,11.75
2023-04-23T18:02:50.441Z,11.73
2023-04-23T18:05:20.039Z,12.25
2023-04-23T18:07:48.806Z,13.27
2023-04-23T18:10:17.706Z,12.02
2023-04-23T18:12:46.688Z,11.82
2023-04-23T18:15:16.945Z,11.90
2023-04-23T18:17:47.587Z,12.52
2023-04-23T18:20:16.378Z,12.23
2023-04-23T18:22:45.411Z,13.77
2023-04-23T18:25:14.249Z,12.90
2023-04-23T18:27:43.037Z,13.32
2023-04-23T18:30:12.320Z,12.85
2023-04-23T18:32:49.561Z,13.27
2023-04-23T18:35:19.090Z,14.90
2023-04-23T18:37:54.298Z,14.95
2023-04-23T18:40:23.548Z,14.10
2023-04-23T18:42:52.529Z,14.63
2023-04-23T18:45:21.651Z,13.50
2023-04-23T18:47:58.716Z,13.73
2023-04-23T18:50:38.448Z,13.55
2023-04-23T18:53:07.559Z,13.57
2023-04-23T18:55:37.164Z,14.10
2023-04-23T18:58:06.000Z,13.77
2023-04-23T19:00:34.988Z,13.55
2023-04-23T19:03:15.286Z,14.07
2023-04-23T19:05:53.002Z,13.20
2023-04-23T19:08:22.761Z,13.95
2023-04-23T19:10:53.850Z,14.93
2023-04-23T19:13:23.120Z,14.48
2023-04-23T19:15:53.109Z,14.20
2023-04-23T19:18:23.727Z,14.10
2023-04-23T19:20:53.027Z,14.13
2023-04-23T19:23:22.140Z,14.20
2023-04-23T19:25:51.981Z,14.48
2023-04-23T19:28:20.858Z,14.60
2023-04-23T19:30:49.716Z,14.93
2023-04-23T19:33:18.571Z,15.25
2023-04-23T19:35:48.898Z,15.70
2023-04-23T19:38:17.836Z,15.63
2023-04-23T19:40:46.672Z,16.33
2023-04-23T19:43:15.479Z,16.75
2023-04-23T19:45:44.413Z,16.88
2023-04-23T19:48:14.149Z,16.48
2023-04-23T19:50:43.051Z,17.45
2023-04-23T19:53:13.309Z,18.13
2023-04-23T19:55:42.559Z,17.23
2023-04-23T19:58:11.329Z,16.23
2023-04-23T20:00:41.559Z,17.17
2023-04-23T20:03:10.894Z,17.02
2023-04-23T20:05:42.470Z,18.15
2023-04-23T20:08:15.683Z,17.85
2023-04-23T20:10:44.606Z,18.27
2023-04-23T20:13:13.332Z,17.70
2023-04-23T20:15:42.241Z,18.73
2023-04-23T20:18:11.209Z,19.00
2023-04-23T20:20:40.108Z,19.65
2023-04-23T20:23:08.968Z,20.67
2023-04-23T20:25:39.971Z,22.13
2023-04-23T20:28:11.449Z,23.02
2023-04-23T20:30:40.282Z,23.73
2023-04-23T20:33:10.615Z,21.40
2023-04-23T20:35:42.096Z,21.30
2023-04-23T20:38:10.962Z,19.85
2023-04-23T20:40:41.318Z,18.98
2023-04-23T20:43:10.448Z,20.48
2023-04-23T20:45:40.468Z,19.30
2023-04-23T20:48:10.117Z,19.38
2023-04-23T20:50:38.931Z,20.30
2023-04-23T20:53:07.646Z,19.92
2023-04-23T20:55:37.124Z,19.42
2023-04-23T20:58:08.507Z,18.65
2023-04-23T21:00:38.286Z,18.73
2023-04-23T21:03:07.556Z,18.50
2023-04-23T21:05:37.702Z,18.63
2023-04-23T21:08:06.468Z,20.13
2023-04-23T21:10:35.224Z,19.33
2023-04-23T21:13:04.772Z,19.73
2023-04-23T21:15:35.795Z,19.52
2023-04-23T21:18:04.821Z,19.70
2023-04-23T21:20:33.676Z,19.95
2023-04-23T21:23:03.109Z,18.88
2023-04-23T21:25:33.343Z,20.58
2023-04-23T21:28:03.702Z,19.85
2023-04-23T21:30:40.752Z,19.02
2023-04-23T21:33:09.560Z,20.20
2023-04-23T21:35:38.374Z,20.80
2023-04-23T21:38:07.177Z,19.88
2023-04-23T21:40:36.408Z,19.40
2023-04-23T21:43:05.679Z,19.98
2023-04-23T21:45:34.954Z,20.87
2023-04-23T21:48:06.183Z,19.65
2023-04-23T21:50:36.260Z,18.97
2023-04-23T21:53:07.555Z,19.63
2023-04-23T21:55:36.358Z,20.33
2023-04-23T21:58:16.539Z,19.37
2023-04-23T22:00:48.078Z,20.20
2023-04-23T22:03:27.353Z,20.45
2023-04-23T22:06:09.681Z,20.63
2023-04-23T22:08:40.527Z,20.65
2023-04-23T22:11:09.839Z,19.75
2023-04-23T22:13:38.611Z,19.33
2023-04-23T22:16:20.326Z,20.75
2023-04-23T22:18:57.950Z,19.33
2023-04-23T22:21:26.901Z,18.63
2023-04-23T22:23:56.150Z,19.77
2023-04-23T22:26:24.938Z,19.02
2023-04-23T22:28:53.839Z,18.63
2023-04-23T22:31:22.687Z,18.83
2023-04-23T22:33:51.528Z,19.60
2023-04-23T22:36:21.708Z,19.73
2023-04-23T22:38:50.457Z,18.98
2023-04-23T22:41:19.420Z,19.13
2023-04-23T22:43:48.154Z,21.52
2023-04-23T22:46:17.078Z,20.47
2023-04-23T22:48:47.440Z,20.17
2023-04-23T22:51:16.271Z,20.13
2023-04-23T22:53:46.507Z,20.95
2023-04-23T22:56:15.290Z,19.90
2023-04-23T22:58:45.229Z,20.42
2023-04-23T23:01:14.037Z,19.98
2023-04-23T23:03:42.871Z,19.07
2023-04-23T23:06:12.297Z,18.83
2023-04-23T23:08:41.112Z,20.02
2023-04-23T23:11:11.328Z,19.40
2023-04-23T23:13:40.787Z,19.45
2023-04-23T23:16:11.591Z,18.92
2023-04-23T23:18:40.430Z,20.23
2023-04-23T23:21:09.257Z,19.20
2023-04-23T23:23:38.002Z,19.65
2023-04-23T23:26:07.301Z,19.88
2023-04-23T23:28:37.660Z,18.77
2023-04-23T23:31:06.748Z,18.40
2023-04-23T23:33:36.405Z,18.20
2023-04-23T23:36:05.279Z,18.60
2023-04-23T23:38:34.039Z,18.73
2023-04-23T23:41:02.779Z,18.13
2023-04-23T23:43:31.969Z,19.90
2023-04-23T23:46:02.260Z,20.13
2023-04-23T23:48:31.140Z,19.70
2023-04-23T23:50:59.965Z,18.42
2023-04-23T23:53:28.719Z,18.50
2023-04-23T23:55:57.539Z,18.93
2023-04-23T23:58:29.454Z,18.88
